createdAt,value
2022-07-29T00:00:38.021Z,23.15
2022-07-29T00:02:43.929Z,23.12
2022-07-29T00:04:46.538Z,23.09
2022-07-29T00:06:49.585Z,23.06
2022-07-29T00:08:52.745Z,23.03
2022-07-29T00:10:55.365Z,23.01
2022-07-29T00:12:58.094Z,23.01
2022-07-29T00:15:01.500Z,22.98
2022-07-29T00:17:04.214Z,22.97
2022-07-29T00:19:09.693Z,22.94
2022-07-29T00:21:13.776Z,22.93
2022-07-29T00:23:16.513Z,22.92
2022-07-29T00:25:19.117Z,22.90
2022-07-29T00:27:21.866Z,22.87
2022-07-29T00:29:35.222Z,22.84
2022-07-29T00:31:38.086Z,22.83
2022-07-29T00:33:40.903Z,22.79
2022-07-29T00:35:43.377Z,22.76
2022-07-29T00:37:46.247Z,22.72
2022-07-29T00:39:49.993Z,22.68
2022-07-29T00:41:52.835Z,22.68
2022-07-29T00:43:55.981Z,22.67
2022-07-29T00:45:58.592Z,22.64
2022-07-29T00:48:01.235Z,22.60
2022-07-29T00:50:05.719Z,22.57
2022-07-29T00:52:09.803Z,22.53
2022-07-29T00:54:13.890Z,22.50
2022-07-29T00:56:16.808Z,22.50
2022-07-29T00:58:19.722Z,22.49
2022-07-29T01:00:24.560Z,22.48
2022-07-29T01:02:31.243Z,22.42
2022-07-29T01:04:34.231Z,22.40
2022-07-29T01:06:37.192Z,22.38
2022-07-29T01:08:40.611Z,22.37
2022-07-29T01:10:44.651Z,22.35
2022-07-29T01:12:49.561Z,22.31
2022-07-29T01:14:55.060Z,22.26
2022-07-29T01:17:06.853Z,22.23
2022-07-29T01:19:33.086Z,22.22
2022-07-29T01:21:52.102Z,22.20
2022-07-29T01:24:08.030Z,22.18
2022-07-29T01:26:38.429Z,22.15
2022-07-29T01:28:56.018Z,22.14
2022-07-29T01:31:02.285Z,22.13
2022-07-29T01:33:11.729Z,22.13
2022-07-29T01:35:21.497Z,22.11
2022-07-29T01:37:30.069Z,22.07
2022-07-29T01:39:35.346Z,22.07
2022-07-29T01:41:45.570Z,22.07
2022-07-29T01:43:53.920Z,22.05
2022-07-29T01:46:00.947Z,22.04
2022-07-29T01:48:10.773Z,22.02
2022-07-29T01:50:17.924Z,22.00
2022-07-29T01:52:26.852Z,22.02
2022-07-29T01:54:36.655Z,22.03
2022-07-29T01:56:42.465Z,22.02
2022-07-29T01:58:48.540Z,21.98
2022-07-29T02:00:51.986Z,21.94
2022-07-29T02:02:56.368Z,21.92
2022-07-29T02:05:00.965Z,21.90
2022-07-29T02:07:06.499Z,21.88
2022-07-29T02:09:11.993Z,21.87
2022-07-29T02:11:14.654Z,21.86
2022-07-29T02:13:20.482Z,21.85
2022-07-29T02:15:24.587Z,21.82
2022-07-29T02:17:31.445Z,21.79
2022-07-29T02:19:36.730Z,21.74
2022-07-29T02:21:40.774Z,21.69
2022-07-29T02:23:51.319Z,21.69
2022-07-29T02:25:56.397Z,21.68
2022-07-29T02:28:00.704Z,21.65
2022-07-29T02:30:05.997Z,21.63
2022-07-29T02:32:13.718Z,21.62
2022-07-29T02:34:19.056Z,21.59
2022-07-29T02:36:25.475Z,21.55
2022-07-29T02:38:31.114Z,21.50
2022-07-29T02:40:35.755Z,21.49
2022-07-29T02:42:39.040Z,21.47
2022-07-29T02:44:44.126Z,21.43
2022-07-29T02:46:53.821Z,21.42
2022-07-29T02:49:02.239Z,21.42
2022-07-29T02:51:12.766Z,21.46
2022-07-29T02:53:35.821Z,21.49
2022-07-29T02:55:46.858Z,21.49
2022-07-29T02:57:56.826Z,21.47
2022-07-29T03:00:02.073Z,21.48
2022-07-29T03:02:07.479Z,21.50
2022-07-29T03:04:11.974Z,21.51
2022-07-29T03:06:37.354Z,21.56
2022-07-29T03:08:38.648Z,21.58
2022-07-29T03:10:44.935Z,21.58
2022-07-29T03:12:48.919Z,21.58
2022-07-29T03:14:51.803Z,21.59
2022-07-29T03:16:55.134Z,21.61
2022-07-29T03:18:58.157Z,21.63
2022-07-29T03:21:00.970Z,21.64
2022-07-29T03:23:03.916Z,21.66
2022-07-29T03:25:10.402Z,21.67
2022-07-29T03:27:13.105Z,21.67
2022-07-29T03:29:15.704Z,21.67
2022-07-29T03:31:22.553Z,21.69
2022-07-29T03:33:25.216Z,21.70
2022-07-29T03:35:28.141Z,21.71
2022-07-29T03:37:33.924Z,21.69
2022-07-29T03:39:41.095Z,21.68
2022-07-29T03:41:48.048Z,21.69
2022-07-29T03:43:51.816Z,21.72
2022-07-29T03:45:58.043Z,21.74
2022-07-29T03:48:06.114Z,21.75
2022-07-29T03:50:12.409Z,21.78
2022-07-29T03:52:15.292Z,21.79
2022-07-29T03:54:18.524Z,21.80
2022-07-29T03:56:22.900Z,21.79
2022-07-29T03:58:28.263Z,21.79
2022-07-29T04:00:32.003Z,21.81
2022-07-29T04:02:36.222Z,21.84
2022-07-29T04:04:38.950Z,21.90
2022-07-29T04:06:43.596Z,21.95
2022-07-29T04:08:46.796Z,21.99
2022-07-29T04:10:49.380Z,22.01
2022-07-29T04:12:52.366Z,22.04
2022-07-29T04:14:54.999Z,22.07
2022-07-29T04:16:57.504Z,22.11
2022-07-29T04:19:00.521Z,22.16
2022-07-29T04:21:03.215Z,22.22
2022-07-29T04:23:05.852Z,22.28
2022-07-29T04:25:09.664Z,22.34
2022-07-29T04:27:13.114Z,22.36
2022-07-29T04:29:15.768Z,22.37
2022-07-29T04:31:21.279Z,22.38
2022-07-29T04:33:27.940Z,22.42
2022-07-29T04:35:38.537Z,22.45
2022-07-29T04:37:41.523Z,22.50
2022-07-29T04:39:44.147Z,22.54
2022-07-29T04:41:46.733Z,22.55
2022-07-29T04:43:49.385Z,22.58
2022-07-29T04:45:52.442Z,22.61
2022-07-29T04:47:55.156Z,22.67
2022-07-29T04:49:57.741Z,22.72
2022-07-29T04:52:00.328Z,22.75
2022-07-29T04:54:03.071Z,22.79
2022-07-29T04:56:06.336Z,22.81
2022-07-29T04:58:08.979Z,22.88
2022-07-29T05:00:13.380Z,22.93
2022-07-29T05:02:16.039Z,22.94
2022-07-29T05:04:19.055Z,22.97
2022-07-29T05:06:22.242Z,23.00
2022-07-29T05:08:24.783Z,23.01
2022-07-29T05:10:27.303Z,23.04
2022-07-29T05:12:29.928Z,23.10
2022-07-29T05:14:33.009Z,23.16
2022-07-29T05:16:36.120Z,23.21
2022-07-29T05:18:38.752Z,23.28
2022-07-29T05:20:41.451Z,23.33
2022-07-29T05:22:44.325Z,23.39
2022-07-29T05:24:46.939Z,23.43
2022-07-29T05:26:49.529Z,23.51
2022-07-29T05:28:55.040Z,23.58
2022-07-29T05:30:57.710Z,23.68
2022-07-29T05:33:00.362Z,23.73
2022-07-29T05:35:03.453Z,23.70
2022-07-29T05:37:06.155Z,23.65
2022-07-29T05:39:09.707Z,23.61
2022-07-29T05:41:12.318Z,23.61
2022-07-29T05:43:14.927Z,23.62
2022-07-29T05:45:17.538Z,23.63
2022-07-29T05:47:20.311Z,23.64
2022-07-29T05:49:27.281Z,23.64
2022-07-29T05:51:31.639Z,23.63
2022-07-29T05:53:34.166Z,23.67
2022-07-29T05:55:36.794Z,23.73
2022-07-29T05:57:41.540Z,23.79
2022-07-29T05:59:44.171Z,23.86
2022-07-29T06:01:46.784Z,23.96
2022-07-29T06:03:49.843Z,24.08
2022-07-29T06:05:52.441Z,24.15
2022-07-29T06:07:54.988Z,24.21
2022-07-29T06:09:57.605Z,24.28
2022-07-29T06:12:00.427Z,24.33
2022-07-29T06:14:03.727Z,24.37
2022-07-29T06:16:12.493Z,24.40
2022-07-29T06:18:18.541Z,24.41
2022-07-29T06:20:27.227Z,24.42
2022-07-29T06:22:29.900Z,24.47
2022-07-29T06:24:32.642Z,24.52
2022-07-29T06:26:39.614Z,24.55
2022-07-29T06:28:42.683Z,24.54
2022-07-29T06:30:46.691Z,24.54
2022-07-29T06:32:51.314Z,24.56
2022-07-29T06:35:02.737Z,24.63
2022-07-29T06:37:16.436Z,24.67
2022-07-29T06:39:19.031Z,24.72
2022-07-29T06:41:21.586Z,24.75
2022-07-29T06:43:24.128Z,24.80
2022-07-29T06:45:29.005Z,24.87
2022-07-29T06:47:31.590Z,24.94
2022-07-29T06:49:34.430Z,25.02
2022-07-29T06:51:37.276Z,25.07
2022-07-29T06:54:00.004Z,25.09
2022-07-29T06:56:07.269Z,25.11
2022-07-29T06:58:09.851Z,25.13
2022-07-29T07:00:14.785Z,25.17
2022-07-29T07:02:19.991Z,25.20
2022-07-29T07:04:22.999Z,25.23
2022-07-29T07:06:25.754Z,25.25
2022-07-29T07:08:28.346Z,25.28
2022-07-29T07:10:31.110Z,25.34
2022-07-29T07:12:33.879Z,25.38
2022-07-29T07:14:36.512Z,25.43
2022-07-29T07:16:39.204Z,25.48
2022-07-29T07:18:41.946Z,25.56
2022-07-29T07:20:45.140Z,25.62
2022-07-29T07:22:47.813Z,25.68
2022-07-29T07:24:54.000Z,25.74
2022-07-29T07:26:56.705Z,25.82
2022-07-29T07:28:59.279Z,25.90
2022-07-29T07:31:01.783Z,25.86
2022-07-29T07:33:04.572Z,25.82
2022-07-29T07:35:10.311Z,25.74
2022-07-29T07:37:12.936Z,25.67
2022-07-29T07:39:15.481Z,25.65
2022-07-29T07:41:18.132Z,25.65
2022-07-29T07:43:20.753Z,25.66
2022-07-29T07:45:26.619Z,25.72
2022-07-29T07:47:29.214Z,25.79
2022-07-29T07:49:32.009Z,25.89
2022-07-29T07:51:34.547Z,25.95
2022-07-29T07:53:37.190Z,26.05
2022-07-29T07:56:08.993Z,26.11
2022-07-29T07:58:05.018Z,26.24
2022-07-29T08:00:10.203Z,26.35
2022-07-29T08:02:15.107Z,26.49
2022-07-29T08:04:20.969Z,26.63
2022-07-29T08:06:27.924Z,26.81
2022-07-29T08:08:30.673Z,26.97
2022-07-29T08:10:33.993Z,27.12
2022-07-29T08:12:36.880Z,27.23
2022-07-29T08:14:39.629Z,27.35
2022-07-29T08:16:42.410Z,27.41
2022-07-29T08:18:46.472Z,27.49
2022-07-29T08:20:49.374Z,27.64
2022-07-29T08:22:52.212Z,27.76
2022-07-29T08:24:55.737Z,27.83
2022-07-29T08:26:58.603Z,27.84
2022-07-29T08:29:01.494Z,27.83
2022-07-29T08:31:04.196Z,27.84
2022-07-29T08:33:06.850Z,27.86
2022-07-29T08:35:10.304Z,27.89
2022-07-29T08:37:12.985Z,27.93
2022-07-29T08:39:18.662Z,27.91
2022-07-29T08:41:21.918Z,27.92
2022-07-29T08:43:24.662Z,27.92
2022-07-29T08:45:29.995Z,27.89
2022-07-29T08:47:33.392Z,27.90
2022-07-29T08:49:36.231Z,27.97
2022-07-29T08:51:49.268Z,28.04
2022-07-29T08:53:53.340Z,28.05
2022-07-29T08:55:57.469Z,28.07
2022-07-29T08:58:01.269Z,28.04
2022-07-29T09:00:11.522Z,28.05
2022-07-29T09:02:24.015Z,28.05
2022-07-29T09:04:30.147Z,28.03
2022-07-29T09:06:38.282Z,28.05
2022-07-29T09:08:41.640Z,28.10
2022-07-29T09:10:44.813Z,28.13
2022-07-29T09:12:47.897Z,28.18
2022-07-29T09:14:51.137Z,28.25
2022-07-29T09:16:56.292Z,28.27
2022-07-29T09:18:59.037Z,28.25
2022-07-29T09:21:02.294Z,28.23
2022-07-29T09:23:08.870Z,28.27
2022-07-29T09:25:13.523Z,28.32
2022-07-29T09:27:23.927Z,28.39
2022-07-29T09:29:27.133Z,28.46
2022-07-29T09:31:36.035Z,28.45
2022-07-29T09:33:38.787Z,28.50
2022-07-29T09:35:42.159Z,28.54
2022-07-29T09:38:11.238Z,28.62
2022-07-29T09:40:16.379Z,28.68
2022-07-29T09:42:29.560Z,28.68
2022-07-29T09:44:43.966Z,28.67
2022-07-29T09:46:58.050Z,28.63
2022-07-29T09:49:11.525Z,28.59
2022-07-29T09:51:25.455Z,28.62
2022-07-29T09:53:33.646Z,28.67
2022-07-29T09:55:48.840Z,28.73
2022-07-29T09:57:51.510Z,28.77
2022-07-29T10:00:02.143Z,28.81
2022-07-29T10:02:18.930Z,28.86
2022-07-29T10:04:36.347Z,28.95
2022-07-29T10:07:03.807Z,28.99
2022-07-29T10:09:11.405Z,28.99
2022-07-29T10:11:16.631Z,28.97
2022-07-29T10:13:19.340Z,28.97
2022-07-29T10:15:24.614Z,28.99
2022-07-29T10:17:27.667Z,29.04
2022-07-29T10:19:32.162Z,29.08
2022-07-29T10:21:36.615Z,29.07
2022-07-29T10:23:46.379Z,29.09
2022-07-29T10:25:50.604Z,29.19
2022-07-29T10:27:54.476Z,29.30
2022-07-29T10:29:57.532Z,29.42
2022-07-29T10:32:27.103Z,29.52
2022-07-29T10:34:52.808Z,29.52
2022-07-29T10:37:04.214Z,29.49
2022-07-29T10:39:22.276Z,29.39
2022-07-29T10:41:44.704Z,29.26
2022-07-29T10:43:51.345Z,29.14
2022-07-29T10:45:59.544Z,29.02
2022-07-29T10:48:05.193Z,28.91
2022-07-29T10:50:16.926Z,28.82
2022-07-29T10:52:20.246Z,28.82
2022-07-29T10:54:46.684Z,28.84
2022-07-29T10:56:49.561Z,28.91
2022-07-29T10:59:25.805Z,28.99
2022-07-29T11:01:37.701Z,29.02
2022-07-29T11:03:49.476Z,28.98
2022-07-29T11:05:55.185Z,28.96
2022-07-29T11:08:26.167Z,28.91
2022-07-29T11:10:31.395Z,28.93
2022-07-29T11:12:49.982Z,28.92
2022-07-29T11:15:00.236Z,28.86
2022-07-29T11:17:06.435Z,28.86
2022-07-29T11:19:26.688Z,28.93
2022-07-29T11:21:55.018Z,28.99
2022-07-29T11:24:12.903Z,29.07
2022-07-29T11:26:23.140Z,29.13
2022-07-29T11:28:26.782Z,29.16
2022-07-29T11:30:50.080Z,29.15
2022-07-29T11:32:52.717Z,29.03
2022-07-29T11:35:17.194Z,29.01
2022-07-29T11:40:07.953Z,29.10
2022-07-29T11:42:44.519Z,29.14
2022-07-29T11:44:57.075Z,29.22
2022-07-29T11:47:01.903Z,29.25
2022-07-29T11:49:09.261Z,29.27
2022-07-29T11:51:13.311Z,29.31
2022-07-29T11:53:16.430Z,29.28
2022-07-29T11:55:20.398Z,29.28
2022-07-29T11:59:49.332Z,29.20
2022-07-29T12:02:33.187Z,29.19
2022-07-29T12:04:20.336Z,29.21
2022-07-29T12:06:23.482Z,29.16
2022-07-29T12:07:03.555Z,29.25
2022-07-29T12:08:26.241Z,29.19
2022-07-29T12:10:32.235Z,29.18
2022-07-29T12:12:36.807Z,29.21
2022-07-29T12:14:40.271Z,29.22
2022-07-29T12:16:43.184Z,29.22
2022-07-29T12:18:57.304Z,29.25
2022-07-29T12:21:03.664Z,29.34
2022-07-29T12:23:08.059Z,29.47
2022-07-29T12:27:40.376Z,29.57
2022-07-29T12:29:47.975Z,29.62
2022-07-29T12:31:54.410Z,29.60
2022-07-29T12:34:00.829Z,29.60
2022-07-29T12:36:09.562Z,29.57
2022-07-29T12:38:14.463Z,29.55
2022-07-29T12:40:18.463Z,29.58
2022-07-29T12:42:21.103Z,29.60
2022-07-29T12:44:43.246Z,29.66
2022-07-29T12:46:46.130Z,29.66
2022-07-29T12:48:53.500Z,29.61
2022-07-29T12:50:59.140Z,29.59
2022-07-29T12:53:11.342Z,29.56
2022-07-29T12:55:14.241Z,29.48
2022-07-29T12:57:19.924Z,29.39
2022-07-29T12:59:23.234Z,29.27
2022-07-29T13:01:26.059Z,29.22
2022-07-29T13:03:28.922Z,29.21
2022-07-29T13:05:45.771Z,29.15
2022-07-29T13:07:55.221Z,29.12
2022-07-29T13:10:17.211Z,29.06
2022-07-29T13:12:21.027Z,29.03
2022-07-29T13:14:33.077Z,29.00
2022-07-29T13:16:36.547Z,28.97
2022-07-29T13:18:39.338Z,28.95
2022-07-29T13:20:42.126Z,28.93
2022-07-29T13:22:48.670Z,28.90
2022-07-29T13:24:53.076Z,28.88
2022-07-29T13:26:55.648Z,28.86
2022-07-29T13:28:58.544Z,28.78
2022-07-29T13:31:01.734Z,28.69
2022-07-29T13:33:04.492Z,28.60
2022-07-29T13:35:09.234Z,28.52
2022-07-29T13:37:15.280Z,28.48
2022-07-29T13:39:17.988Z,28.46
2022-07-29T13:41:20.661Z,28.41
2022-07-29T13:43:23.327Z,28.32
2022-07-29T13:45:26.005Z,28.20
2022-07-29T13:47:35.049Z,28.04
2022-07-29T13:49:38.142Z,27.89
2022-07-29T13:51:40.780Z,27.69
2022-07-29T13:53:44.483Z,27.47
2022-07-29T13:55:47.220Z,27.20
2022-07-29T13:57:51.386Z,26.92
2022-07-29T13:59:54.724Z,26.68
2022-07-29T14:01:57.799Z,26.44
2022-07-29T14:04:00.791Z,26.21
2022-07-29T14:06:04.527Z,25.98
2022-07-29T14:08:07.268Z,25.78
2022-07-29T14:10:12.177Z,25.55
2022-07-29T14:12:14.812Z,25.32
2022-07-29T14:14:17.864Z,25.12
2022-07-29T14:16:21.527Z,24.93
2022-07-29T14:18:24.294Z,24.73
2022-07-29T14:20:27.047Z,24.53
2022-07-29T14:22:29.688Z,24.33
2022-07-29T14:24:32.642Z,24.15
2022-07-29T14:26:39.524Z,24.01
2022-07-29T14:28:42.261Z,23.87
2022-07-29T14:30:45.164Z,23.74
2022-07-29T14:32:50.605Z,23.58
2022-07-29T14:34:53.288Z,23.44
2022-07-29T14:36:55.947Z,23.31
2022-07-29T14:38:58.534Z,23.20
2022-07-29T14:41:01.589Z,23.11
2022-07-29T14:43:04.531Z,23.03
2022-07-29T14:45:09.854Z,22.92
2022-07-29T14:47:12.782Z,22.77
2022-07-29T14:49:15.558Z,22.59
2022-07-29T14:51:18.383Z,22.43
2022-07-29T14:53:21.288Z,22.31
2022-07-29T14:55:27.021Z,22.19
2022-07-29T14:57:29.654Z,22.10
2022-07-29T14:59:32.430Z,22.05
2022-07-29T15:01:35.202Z,22.01
2022-07-29T15:03:37.976Z,22.02
2022-07-29T15:05:40.726Z,22.02
2022-07-29T15:07:43.415Z,22.06
2022-07-29T15:09:49.772Z,22.11
2022-07-29T15:11:52.909Z,22.15
2022-07-29T15:13:56.161Z,22.22
2022-07-29T15:16:00.305Z,22.28
2022-07-29T15:18:03.290Z,22.36
2022-07-29T15:20:08.173Z,22.43
2022-07-29T15:22:10.750Z,22.53
2022-07-29T15:24:13.445Z,22.61
2022-07-29T15:26:16.120Z,22.69
2022-07-29T15:28:18.956Z,22.77
2022-07-29T15:30:31.582Z,22.84
2022-07-29T15:32:36.458Z,22.90
2022-07-29T15:34:39.310Z,22.97
2022-07-29T15:36:57.584Z,23.03
2022-07-29T15:39:00.196Z,23.09
2022-07-29T15:41:02.886Z,23.14
2022-07-29T15:43:08.836Z,23.18
2022-07-29T15:45:11.694Z,23.22
2022-07-29T15:47:14.466Z,23.27
2022-07-29T15:49:19.197Z,23.30
2022-07-29T15:51:25.773Z,23.34
2022-07-29T15:53:28.438Z,23.34
2022-07-29T15:55:31.221Z,23.33
2022-07-29T15:57:33.766Z,23.36
2022-07-29T15:59:36.509Z,23.40
2022-07-29T16:01:42.519Z,23.45
2022-07-29T16:03:46.984Z,23.49
2022-07-29T16:05:49.896Z,23.54
2022-07-29T16:07:52.550Z,23.59
2022-07-29T16:09:55.156Z,23.66
2022-07-29T16:11:58.048Z,23.72
2022-07-29T16:14:04.062Z,23.77
2022-07-29T16:16:07.236Z,23.84
2022-07-29T16:18:10.069Z,23.92
2022-07-29T16:20:14.262Z,24.00
2022-07-29T16:22:16.921Z,24.09
2022-07-29T16:24:19.581Z,24.17
2022-07-29T16:26:22.321Z,24.29
2022-07-29T16:28:25.267Z,24.38
2022-07-29T16:30:27.936Z,24.46
2022-07-29T16:32:30.535Z,24.57
2022-07-29T16:34:33.136Z,24.68
2022-07-29T16:36:35.783Z,24.77
2022-07-29T16:38:41.581Z,24.83
2022-07-29T16:40:50.249Z,24.91
2022-07-29T16:42:53.113Z,24.97
2022-07-29T16:44:55.713Z,25.04
2022-07-29T16:47:01.355Z,25.10
2022-07-29T16:49:04.308Z,25.10
2022-07-29T16:51:07.559Z,25.12
2022-07-29T16:53:10.699Z,25.17
2022-07-29T16:55:13.351Z,25.20
2022-07-29T16:57:16.030Z,25.26
2022-07-29T16:59:18.643Z,25.31
2022-07-29T17:01:21.240Z,25.36
2022-07-29T17:03:23.853Z,25.35
2022-07-29T17:05:26.616Z,25.25
2022-07-29T17:07:29.248Z,25.11
2022-07-29T17:09:31.974Z,25.03
2022-07-29T17:11:52.782Z,24.98
2022-07-29T17:13:57.116Z,24.97
2022-07-29T17:16:00.752Z,24.94
2022-07-29T17:18:12.755Z,24.90
2022-07-29T17:20:17.499Z,24.83
2022-07-29T17:22:20.936Z,24.75
2022-07-29T17:24:23.748Z,24.69
2022-07-29T17:26:28.062Z,24.67
2022-07-29T17:28:31.164Z,24.68
2022-07-29T17:30:33.956Z,24.67
2022-07-29T17:32:36.653Z,24.65
2022-07-29T17:34:41.247Z,24.64
2022-07-29T17:36:43.937Z,24.61
2022-07-29T17:38:47.231Z,24.59
2022-07-29T17:40:50.031Z,24.57
2022-07-29T17:42:52.999Z,24.56
2022-07-29T17:44:55.663Z,24.58
2022-07-29T17:46:58.721Z,24.58
2022-07-29T17:49:01.930Z,24.58
2022-07-29T17:51:06.210Z,24.57
2022-07-29T17:53:16.169Z,24.57
2022-07-29T17:55:19.387Z,24.55
2022-07-29T17:57:22.162Z,24.53
2022-07-29T17:59:24.961Z,24.50
2022-07-29T18:01:27.854Z,24.47
2022-07-29T18:03:30.611Z,24.42
2022-07-29T18:05:33.366Z,24.36
2022-07-29T18:07:36.061Z,24.31
2022-07-29T18:09:38.757Z,24.24
2022-07-29T18:11:44.438Z,24.20
2022-07-29T18:13:48.574Z,24.13
2022-07-29T18:15:51.627Z,24.10
2022-07-29T18:17:57.639Z,24.08
2022-07-29T18:20:00.735Z,24.07
2022-07-29T18:22:05.354Z,24.07
2022-07-29T18:24:09.210Z,24.05
2022-07-29T18:26:14.895Z,24.03
2022-07-29T18:28:17.873Z,24.03
2022-07-29T18:30:21.723Z,24.03
2022-07-29T18:32:29.120Z,24.02
2022-07-29T18:34:32.151Z,24.00
2022-07-29T18:36:34.975Z,23.97
2022-07-29T18:38:37.679Z,23.95
2022-07-29T18:40:40.348Z,23.92
2022-07-29T18:42:43.063Z,23.87
2022-07-29T18:44:49.102Z,23.84
2022-07-29T18:46:52.353Z,23.80
2022-07-29T18:48:55.318Z,23.76
2022-07-29T18:50:58.123Z,23.75
2022-07-29T18:53:00.895Z,23.74
2022-07-29T18:55:04.482Z,23.71
2022-07-29T18:57:54.504Z,23.70
2022-07-29T18:59:30.328Z,23.67
2022-07-29T19:01:33.115Z,23.66
2022-07-29T19:03:37.372Z,23.64
2022-07-29T19:05:40.171Z,23.62
2022-07-29T19:07:42.777Z,23.60
2022-07-29T19:09:49.438Z,23.61
2022-07-29T19:11:55.927Z,23.60
2022-07-29T19:13:59.558Z,23.61
2022-07-29T19:16:02.231Z,23.59
2022-07-29T19:18:05.300Z,23.59
2022-07-29T19:20:09.838Z,23.56
2022-07-29T19:22:12.669Z,23.57
2022-07-29T19:24:15.888Z,23.58
2022-07-29T19:26:20.404Z,23.59
2022-07-29T19:28:26.634Z,23.58
2022-07-29T19:30:29.327Z,23.57
2022-07-29T19:32:32.073Z,23.57
2022-07-29T19:34:34.883Z,23.57
2022-07-29T19:36:37.750Z,23.58
2022-07-29T19:38:40.393Z,23.58
2022-07-29T19:40:43.159Z,23.56
2022-07-29T19:42:45.987Z,23.54
2022-07-29T19:44:48.720Z,23.54
2022-07-29T19:46:51.481Z,23.56
2022-07-29T19:48:57.262Z,23.57
2022-07-29T19:50:59.944Z,23.59
2022-07-29T19:53:02.679Z,23.59
2022-07-29T19:55:07.958Z,23.58
2022-07-29T19:57:10.782Z,23.57
2022-07-29T19:59:13.463Z,23.53
2022-07-29T20:01:16.218Z,23.52
2022-07-29T20:03:18.891Z,23.52
2022-07-29T20:05:21.673Z,23.52
2022-07-29T20:07:30.762Z,23.51
2022-07-29T20:09:33.638Z,23.50
2022-07-29T20:11:36.390Z,23.49
2022-07-29T20:13:40.047Z,23.48
2022-07-29T20:15:42.891Z,23.46
2022-07-29T20:17:45.759Z,23.47
2022-07-29T20:19:48.565Z,23.47
2022-07-29T20:21:51.330Z,23.48
2022-07-29T20:23:54.374Z,23.48
2022-07-29T20:25:57.158Z,23.47
2022-07-29T20:27:59.941Z,23.44
2022-07-29T20:30:03.218Z,23.36
2022-07-29T20:32:08.072Z,23.31
2022-07-29T20:34:10.603Z,23.27
2022-07-29T20:36:13.536Z,23.24
2022-07-29T20:38:18.372Z,23.20
2022-07-29T20:40:21.994Z,23.15
2022-07-29T20:42:24.708Z,23.13
2022-07-29T20:44:27.545Z,23.08
2022-07-29T20:46:30.501Z,22.99
2022-07-29T20:48:33.263Z,22.90
2022-07-29T20:50:35.968Z,22.84
2022-07-29T20:52:38.620Z,22.76
2022-07-29T20:54:44.986Z,22.67
2022-07-29T20:56:47.811Z,22.59
2022-07-29T20:58:50.564Z,22.57
2022-07-29T21:00:53.394Z,22.52
2022-07-29T21:02:56.229Z,22.44
2022-07-29T21:04:58.928Z,22.37
2022-07-29T21:07:01.683Z,22.31
2022-07-29T21:09:04.817Z,22.26
2022-07-29T21:11:08.296Z,22.22
2022-07-29T21:13:11.007Z,22.22
2022-07-29T21:15:14.186Z,22.23
2022-07-29T21:17:17.022Z,22.22
2022-07-29T21:19:19.807Z,22.21
2022-07-29T21:21:26.587Z,22.20
2022-07-29T21:23:29.755Z,22.18
2022-07-29T21:25:32.408Z,22.15
2022-07-29T21:27:35.131Z,22.12
2022-07-29T21:29:42.825Z,22.10
2022-07-29T21:31:45.600Z,22.06
2022-07-29T21:33:48.286Z,22.04
2022-07-29T21:38:17.544Z,22.07
2022-07-29T21:40:20.546Z,22.05
2022-07-29T21:42:23.345Z,22.04
2022-07-29T21:44:27.170Z,22.01
2022-07-29T21:46:29.956Z,21.97
2022-07-29T21:48:32.648Z,21.93
2022-07-29T21:50:35.915Z,21.91
2022-07-29T21:52:38.852Z,21.88
2022-07-29T21:54:42.683Z,21.86
2022-07-29T21:56:45.360Z,21.86
2022-07-29T21:58:54.337Z,21.82
2022-07-29T22:00:57.371Z,21.82
2022-07-29T22:03:00.640Z,21.80
2022-07-29T22:05:03.720Z,21.79
2022-07-29T22:07:06.449Z,21.80
2022-07-29T22:09:09.152Z,21.79
2022-07-29T22:11:11.651Z,21.78
2022-07-29T22:13:14.269Z,21.76
2022-07-29T22:15:17.462Z,21.75
2022-07-29T22:17:20.411Z,21.73
2022-07-29T22:19:23.219Z,21.73
2022-07-29T22:21:30.620Z,21.71
2022-07-29T22:23:33.313Z,21.72
2022-07-29T22:25:38.844Z,21.71
2022-07-29T22:27:41.584Z,21.72
2022-07-29T22:29:44.319Z,21.75
2022-07-29T22:31:47.232Z,21.76
2022-07-29T22:33:50.699Z,21.78
2022-07-29T22:35:53.522Z,21.80
2022-07-29T22:37:56.225Z,21.78
2022-07-29T22:39:59.210Z,21.77
2022-07-29T22:42:01.933Z,21.76
2022-07-29T22:44:04.970Z,21.76
2022-07-29T22:46:09.350Z,21.76
2022-07-29T22:48:12.132Z,21.75
2022-07-29T22:50:14.955Z,21.72
2022-07-29T22:52:17.652Z,21.70
2022-07-29T22:54:20.280Z,21.66
2022-07-29T22:56:23.417Z,21.63
2022-07-29T22:58:26.164Z,21.63
2022-07-29T23:00:28.982Z,21.62
2022-07-29T23:02:31.724Z,21.62
2022-07-29T23:04:34.400Z,21.58
2022-07-29T23:06:37.091Z,21.52
2022-07-29T23:08:39.864Z,21.47
2022-07-29T23:10:42.739Z,21.45
2022-07-29T23:12:45.467Z,21.41
2022-07-29T23:14:48.194Z,21.39
2022-07-29T23:16:50.921Z,21.38
2022-07-29T23:18:54.041Z,21.39
2022-07-29T23:20:56.798Z,21.41
2022-07-29T23:22:59.563Z,21.43
2022-07-29T23:25:02.996Z,21.44
2022-07-29T23:27:05.655Z,21.44
2022-07-29T23:29:08.450Z,21.44
2022-07-29T23:31:14.976Z,21.41
2022-07-29T23:33:17.747Z,21.32
2022-07-29T23:35:21.558Z,21.16
2022-07-29T23:37:24.151Z,21.04
2022-07-29T23:39:29.511Z,20.97
2022-07-29T23:41:32.371Z,20.93
2022-07-29T23:43:38.039Z,20.92
2022-07-29T23:45:44.478Z,20.90
2022-07-29T23:47:51.506Z,20.86
2022-07-29T23:49:54.200Z,20.84
2022-07-29T23:51:56.978Z,20.82
2022-07-29T23:53:59.658Z,20.81
2022-07-29T23:56:02.427Z,20.80
2022-07-29T23:58:05.196Z,20.79
